createdAt,value
2018-06-25T00:00:42.627Z,10.40
2018-06-25T00:03:11.802Z,7.87
2018-06-25T00:05:40.975Z,9.23
2018-06-25T00:08:10.347Z,11.97
2018-06-25T00:10:39.551Z,11.97
2018-06-25T00:13:08.748Z,8.27
2018-06-25T00:15:37.987Z,11.73
2018-06-25T00:18:07.394Z,9.87
2018-06-25T00:20:36.651Z,9.07
2018-06-25T00:23:06.075Z,8.87
2018-06-25T00:25:35.392Z,8.23
2018-06-25T00:28:04.709Z,9.80
2018-06-25T00:30:33.911Z,12.23
2018-06-25T00:33:03.278Z,8.80
2018-06-25T00:35:32.547Z,9.47
2018-06-25T00:38:01.787Z,10.73
2018-06-25T00:40:30.976Z,10.87
2018-06-25T00:43:00.261Z,8.83
2018-06-25T00:45:30.310Z,11.83
2018-06-25T00:47:59.451Z,9.23
2018-06-25T00:50:28.657Z,10.40
2018-06-25T00:52:57.956Z,9.50
2018-06-25T00:55:27.670Z,8.50
2018-06-25T00:57:56.825Z,8.23
2018-06-25T01:00:26.059Z,10.17
2018-06-25T01:02:55.450Z,10.53
2018-06-25T01:05:24.897Z,14.90
2018-06-25T01:07:54.211Z,10.57
2018-06-25T01:10:23.526Z,10.47
2018-06-25T01:12:52.863Z,8.00
2018-06-25T01:15:22.157Z,10.33
2018-06-25T01:17:51.423Z,11.23
2018-06-25T01:20:20.607Z,10.83
2018-06-25T01:22:49.715Z,7.93
2018-06-25T01:25:18.981Z,9.03
2018-06-25T01:27:48.321Z,7.43
2018-06-25T01:30:17.475Z,13.13
2018-06-25T01:32:46.713Z,9.20
2018-06-25T01:35:16.163Z,11.10
2018-06-25T01:37:45.487Z,11.10
2018-06-25T01:40:14.525Z,13.07
2018-06-25T01:42:43.905Z,11.50
2018-06-25T01:45:13.024Z,11.77
2018-06-25T01:47:42.251Z,9.10
2018-06-25T01:50:11.686Z,8.83
2018-06-25T01:52:41.125Z,10.53
2018-06-25T01:55:10.570Z,13.33
2018-06-25T01:57:39.781Z,10.80
2018-06-25T02:00:08.937Z,9.87
2018-06-25T02:02:38.065Z,15.00
2018-06-25T02:05:07.462Z,15.00
2018-06-25T02:07:36.870Z,11.20
2018-06-25T02:10:06.162Z,9.60
2018-06-25T02:12:35.345Z,17.77
2018-06-25T02:15:04.848Z,13.73
2018-06-25T02:17:34.022Z,11.20
2018-06-25T02:20:03.346Z,10.93
2018-06-25T02:22:32.596Z,13.33
2018-06-25T02:25:01.955Z,11.67
2018-06-25T02:27:31.195Z,12.13
2018-06-25T02:30:00.479Z,14.03
2018-06-25T02:32:29.862Z,13.17
2018-06-25T02:34:59.436Z,12.47
2018-06-25T02:37:28.809Z,17.60
2018-06-25T02:39:58.120Z,11.80
2018-06-25T02:42:27.338Z,14.07
2018-06-25T02:44:56.845Z,14.87
2018-06-25T02:47:26.112Z,13.63
2018-06-25T02:49:55.322Z,15.47
2018-06-25T02:52:24.958Z,11.63
2018-06-25T02:54:54.275Z,19.17
2018-06-25T02:57:23.517Z,14.87
2018-06-25T02:59:52.702Z,13.03
2018-06-25T03:02:21.903Z,15.57
2018-06-25T03:04:51.253Z,11.77
2018-06-25T03:07:20.758Z,11.53
2018-06-25T03:09:50.646Z,17.27
2018-06-25T03:12:20.316Z,13.23
2018-06-25T03:14:49.934Z,12.93
2018-06-25T03:17:19.863Z,17.30
2018-06-25T03:19:49.906Z,11.63
2018-06-25T03:22:20.923Z,15.97
2018-06-25T03:24:50.906Z,16.93
2018-06-25T03:27:20.646Z,14.30
2018-06-25T03:29:50.316Z,17.17
2018-06-25T03:32:21.164Z,20.73
2018-06-25T03:34:51.240Z,21.93
2018-06-25T03:37:20.888Z,14.00
2018-06-25T03:39:50.644Z,15.43
2018-06-25T03:42:20.500Z,20.00
2018-06-25T03:44:50.312Z,19.00
2018-06-25T03:47:20.308Z,18.47
2018-06-25T03:49:50.098Z,18.07
2018-06-25T03:52:20.102Z,18.80
2018-06-25T03:54:50.603Z,18.83
2018-06-25T03:57:20.977Z,20.20
2018-06-25T03:59:50.720Z,16.63
2018-06-25T04:02:20.478Z,17.53
2018-06-25T04:04:50.134Z,14.70
2018-06-25T04:07:20.092Z,17.73
2018-06-25T04:09:50.173Z,17.43
2018-06-25T04:12:20.375Z,15.13
2018-06-25T04:14:50.261Z,15.63
2018-06-25T04:17:20.187Z,18.27
2018-06-25T04:19:50.524Z,21.80
2018-06-25T04:22:21.149Z,19.43
2018-06-25T04:24:50.669Z,16.77
2018-06-25T04:27:20.767Z,18.73
2018-06-25T04:29:50.719Z,18.17
2018-06-25T04:32:20.056Z,19.43
2018-06-25T04:34:51.270Z,20.00
2018-06-25T04:37:21.366Z,20.63
2018-06-25T04:39:51.218Z,18.50
2018-06-25T04:42:21.486Z,18.87
2018-06-25T04:44:51.648Z,20.70
2018-06-25T04:47:21.128Z,17.60
2018-06-25T04:49:51.318Z,15.77
2018-06-25T04:52:21.135Z,18.27
2018-06-25T04:54:50.720Z,20.80
2018-06-25T04:57:20.444Z,19.13
2018-06-25T04:59:50.686Z,19.20
2018-06-25T05:02:21.168Z,19.23
2018-06-25T05:04:51.231Z,19.83
2018-06-25T05:07:21.310Z,26.60
2018-06-25T05:09:51.306Z,19.50
2018-06-25T05:12:27.808Z,18.63
2018-06-25T05:14:58.120Z,16.33
2018-06-25T05:17:29.126Z,18.13
2018-06-25T05:20:00.070Z,20.97
2018-06-25T05:22:30.055Z,19.97
2018-06-25T05:24:59.796Z,21.00
2018-06-25T05:27:30.002Z,20.40
2018-06-25T05:30:01.847Z,22.33
2018-06-25T05:32:32.628Z,21.40
2018-06-25T05:35:02.932Z,27.50
2018-06-25T05:37:32.825Z,23.13
2018-06-25T05:40:02.944Z,19.70
2018-06-25T05:42:33.854Z,23.50
2018-06-25T05:45:03.711Z,25.87
2018-06-25T05:47:33.700Z,20.63
2018-06-25T05:50:04.042Z,20.73
2018-06-25T05:52:34.508Z,22.33
2018-06-25T05:55:05.204Z,20.20
2018-06-25T05:57:35.212Z,24.50
2018-06-25T06:00:05.100Z,23.03
2018-06-25T06:02:35.015Z,22.40
2018-06-25T06:05:05.027Z,22.13
2018-06-25T06:07:35.062Z,20.23
2018-06-25T06:10:05.124Z,16.80
2018-06-25T06:12:35.260Z,18.07
2018-06-25T06:15:05.266Z,20.33
2018-06-25T06:17:35.404Z,20.57
2018-06-25T06:20:06.409Z,18.53
2018-06-25T06:22:36.911Z,18.53
2018-06-25T06:25:06.874Z,16.93
2018-06-25T06:27:37.474Z,23.70
2018-06-25T06:30:07.742Z,19.90
2018-06-25T06:32:37.689Z,14.87
2018-06-25T06:35:07.737Z,24.27
2018-06-25T06:37:39.096Z,20.60
2018-06-25T06:40:09.259Z,16.77
2018-06-25T06:42:39.271Z,16.93
2018-06-25T06:45:09.329Z,14.70
2018-06-25T06:47:39.620Z,19.87
2018-06-25T06:50:09.783Z,20.90
2018-06-25T06:52:39.672Z,18.60
2018-06-25T06:55:09.925Z,17.50
2018-06-25T06:57:39.990Z,16.97
2018-06-25T07:00:10.507Z,20.57
2018-06-25T07:02:41.113Z,15.93
2018-06-25T07:05:11.194Z,18.57
2018-06-25T07:07:41.157Z,24.40
2018-06-25T07:10:10.676Z,15.23
2018-06-25T07:12:40.557Z,13.43
2018-06-25T07:15:10.544Z,16.07
2018-06-25T07:17:40.915Z,17.30
2018-06-25T07:20:10.920Z,17.83
2018-06-25T07:22:41.263Z,14.37
2018-06-25T07:25:11.383Z,17.07
2018-06-25T07:27:41.435Z,17.13
2018-06-25T07:30:11.461Z,18.07
2018-06-25T07:32:41.467Z,14.67
2018-06-25T07:35:11.852Z,16.87
2018-06-25T07:37:41.229Z,15.67
2018-06-25T07:40:11.223Z,12.60
2018-06-25T07:42:41.050Z,24.10
2018-06-25T07:45:10.701Z,13.30
2018-06-25T07:47:40.578Z,17.63
2018-06-25T07:50:10.517Z,16.17
2018-06-25T07:52:40.342Z,15.60
2018-06-25T07:55:10.282Z,10.50
2018-06-25T07:57:40.475Z,16.33
2018-06-25T08:00:10.477Z,11.83
2018-06-25T08:02:40.339Z,14.20
2018-06-25T08:05:10.207Z,11.23
2018-06-25T08:07:40.166Z,10.23
2018-06-25T08:10:10.125Z,11.23
2018-06-25T08:12:40.094Z,13.63
2018-06-25T08:15:09.947Z,9.90
2018-06-25T08:17:40.284Z,15.40
2018-06-25T08:20:10.145Z,13.17
2018-06-25T08:22:40.283Z,20.60
2018-06-25T08:25:10.175Z,14.27
2018-06-25T08:27:39.891Z,12.57
2018-06-25T08:30:10.180Z,13.90
2018-06-25T08:32:40.689Z,11.77
2018-06-25T08:35:10.531Z,13.10
2018-06-25T08:37:40.300Z,10.13
2018-06-25T08:40:10.518Z,13.27
2018-06-25T08:42:40.079Z,12.43
2018-06-25T08:45:10.125Z,11.23
2018-06-25T08:47:39.874Z,11.17
2018-06-25T08:50:10.262Z,5.50
2018-06-25T08:52:40.147Z,8.77
2018-06-25T08:55:10.429Z,6.83
2018-06-25T08:57:40.317Z,8.93
2018-06-25T09:00:10.160Z,9.97
2018-06-25T09:02:40.022Z,7.73
2018-06-25T09:05:10.158Z,9.97
2018-06-25T09:07:42.002Z,9.77
2018-06-25T09:10:12.340Z,9.90
2018-06-25T09:12:42.565Z,9.73
2018-06-25T09:15:12.666Z,12.17
2018-06-25T09:17:42.531Z,11.70
2018-06-25T09:20:12.448Z,12.13
2018-06-25T09:22:42.373Z,10.70
2018-06-25T09:25:12.605Z,7.63
2018-06-25T09:27:48.706Z,13.60
2018-06-25T09:30:20.295Z,11.57
2018-06-25T09:32:50.328Z,11.37
2018-06-25T09:35:20.195Z,11.00
2018-06-25T09:37:50.031Z,11.60
2018-06-25T09:40:19.812Z,14.23
2018-06-25T09:42:50.140Z,14.07
2018-06-25T09:45:20.084Z,9.17
2018-06-25T09:47:50.093Z,12.47
2018-06-25T09:50:20.178Z,11.07
2018-06-25T09:52:50.263Z,13.97
2018-06-25T09:55:19.990Z,15.13
2018-06-25T09:57:50.056Z,16.30
2018-06-25T10:00:24.942Z,17.67
2018-06-25T10:02:55.181Z,21.00
2018-06-25T10:05:25.212Z,21.57
2018-06-25T10:07:55.257Z,17.90
2018-06-25T10:10:25.503Z,21.47
2018-06-25T10:12:55.383Z,21.20
2018-06-25T10:15:25.252Z,24.30
2018-06-25T10:17:55.098Z,15.03
2018-06-25T10:20:25.036Z,16.93
2018-06-25T10:22:55.029Z,17.40
2018-06-25T10:25:25.068Z,17.60
2018-06-25T10:27:54.934Z,19.93
2018-06-25T10:30:24.995Z,26.17
2018-06-25T10:32:55.189Z,21.40
2018-06-25T10:35:25.094Z,17.27
2018-06-25T10:37:56.092Z,15.80
2018-06-25T10:40:25.926Z,15.03
2018-06-25T10:42:55.840Z,18.20
2018-06-25T10:45:25.602Z,17.97
2018-06-25T10:47:55.623Z,19.93
2018-06-25T10:50:25.320Z,19.40
2018-06-25T10:52:55.193Z,21.00
2018-06-25T10:55:25.010Z,18.13
2018-06-25T10:57:54.991Z,21.80
2018-06-25T11:00:25.092Z,17.23
2018-06-25T11:02:55.071Z,17.47
2018-06-25T11:05:25.220Z,21.03
2018-06-25T11:07:55.212Z,14.23
2018-06-25T11:10:25.120Z,14.70
2018-06-25T11:12:55.048Z,14.50
2018-06-25T11:15:25.120Z,22.97
2018-06-25T11:17:55.068Z,15.33
2018-06-25T11:20:25.088Z,16.27
2018-06-25T11:22:54.946Z,12.90
2018-06-25T11:25:25.100Z,15.47
2018-06-25T11:27:55.117Z,15.53
2018-06-25T11:30:25.112Z,15.93
2018-06-25T11:32:55.124Z,14.20
2018-06-25T11:35:25.102Z,12.87
2018-06-25T11:37:54.617Z,12.80
2018-06-25T11:40:24.815Z,13.07
2018-06-25T11:42:55.048Z,13.53
2018-06-25T11:45:25.138Z,11.63
2018-06-25T11:47:55.188Z,13.13
2018-06-25T11:50:25.124Z,16.30
2018-06-25T11:52:55.319Z,11.40
2018-06-25T11:55:25.625Z,17.10
2018-06-25T11:57:55.258Z,9.80
2018-06-25T12:00:25.104Z,13.73
2018-06-25T12:02:55.086Z,14.00
2018-06-25T12:05:24.954Z,11.27
2018-06-25T12:07:54.996Z,14.73
2018-06-25T12:10:25.137Z,11.27
2018-06-25T12:12:55.050Z,12.60
2018-06-25T12:15:25.618Z,19.67
2018-06-25T12:17:55.494Z,10.97
2018-06-25T12:20:25.331Z,13.07
2018-06-25T12:22:55.204Z,16.40
2018-06-25T12:25:25.213Z,9.03
2018-06-25T12:27:55.724Z,17.90
2018-06-25T12:30:26.266Z,12.63
2018-06-25T12:32:55.844Z,14.83
2018-06-25T12:35:25.920Z,13.57
2018-06-25T12:37:55.660Z,13.93
2018-06-25T12:40:25.504Z,11.50
2018-06-25T12:42:55.315Z,11.73
2018-06-25T12:45:25.143Z,9.53
2018-06-25T12:47:55.426Z,11.20
2018-06-25T12:50:25.641Z,12.03
2018-06-25T12:52:55.389Z,10.73
2018-06-25T12:55:25.454Z,11.37
2018-06-25T12:57:55.268Z,14.20
2018-06-25T13:00:25.124Z,11.20
2018-06-25T13:02:55.268Z,9.53
2018-06-25T13:05:25.014Z,13.23
2018-06-25T13:07:54.842Z,11.40
2018-06-25T13:10:24.833Z,11.70
2018-06-25T13:12:55.018Z,12.50
2018-06-25T13:15:25.380Z,13.47
2018-06-25T13:17:55.070Z,12.73
2018-06-25T13:20:25.026Z,11.10
2018-06-25T13:22:55.230Z,11.17
2018-06-25T13:25:25.399Z,14.77
2018-06-25T13:27:55.230Z,11.57
2018-06-25T13:30:25.175Z,11.43
2018-06-25T13:32:55.600Z,14.80
2018-06-25T13:35:25.884Z,11.57
2018-06-25T13:37:56.052Z,10.53
2018-06-25T13:40:25.722Z,14.67
2018-06-25T13:42:56.534Z,15.40
2018-06-25T13:45:26.788Z,13.20
2018-06-25T13:47:57.322Z,15.40
2018-06-25T13:50:27.925Z,15.90
2018-06-25T13:52:58.004Z,14.33
2018-06-25T13:55:27.884Z,13.37
2018-06-25T13:57:58.221Z,15.67
2018-06-25T14:00:27.952Z,15.07
2018-06-25T14:02:57.904Z,12.53
2018-06-25T14:05:29.226Z,10.87
2018-06-25T14:08:00.344Z,13.90
2018-06-25T14:10:30.624Z,15.00
2018-06-25T14:13:00.794Z,15.33
2018-06-25T14:15:30.889Z,14.37
2018-06-25T14:18:00.890Z,13.60
2018-06-25T14:20:30.504Z,13.07
2018-06-25T14:23:00.705Z,12.03
2018-06-25T14:25:34.812Z,13.37
2018-06-25T14:28:10.151Z,13.57
2018-06-25T14:30:45.206Z,12.53
2018-06-25T14:33:16.150Z,12.43
2018-06-25T14:35:46.334Z,10.93
2018-06-25T14:38:16.755Z,10.93
2018-06-25T14:40:46.460Z,13.67
2018-06-25T14:43:16.123Z,10.80
2018-06-25T14:45:46.381Z,14.63
2018-06-25T14:48:17.138Z,11.47
2018-06-25T14:50:48.222Z,11.00
2018-06-25T14:53:17.907Z,16.10
2018-06-25T14:55:48.016Z,14.03
2018-06-25T14:58:17.919Z,11.10
2018-06-25T15:00:47.753Z,14.27
2018-06-25T15:03:17.817Z,9.73
2018-06-25T15:05:47.460Z,16.33
2018-06-25T15:08:17.745Z,14.63
2018-06-25T15:10:47.569Z,10.17
2018-06-25T15:13:17.827Z,12.30
2018-06-25T15:15:47.689Z,13.20
2018-06-25T15:18:17.493Z,11.50
2018-06-25T15:20:47.159Z,11.80
2018-06-25T15:23:17.771Z,12.93
2018-06-25T15:25:47.888Z,11.97
2018-06-25T15:28:17.728Z,10.43
2018-06-25T15:30:47.901Z,17.77
2018-06-25T15:33:17.683Z,14.37
2018-06-25T15:35:53.172Z,9.47
2018-06-25T15:38:24.232Z,13.57
2018-06-25T15:40:54.459Z,8.77
2018-06-25T15:43:24.902Z,11.17
2018-06-25T15:45:55.491Z,10.60
2018-06-25T15:48:25.777Z,11.33
2018-06-25T15:50:55.914Z,10.40
2018-06-25T15:53:25.537Z,11.93
2018-06-25T15:55:56.680Z,11.53
2018-06-25T15:58:27.353Z,10.93
2018-06-25T16:00:57.422Z,8.27
2018-06-25T16:03:27.822Z,13.47
2018-06-25T16:05:58.241Z,15.07
2018-06-25T16:08:28.085Z,13.90
2018-06-25T16:10:58.181Z,13.77
2018-06-25T16:13:30.024Z,13.03
2018-06-25T16:16:00.105Z,10.03
2018-06-25T16:18:30.387Z,10.57
2018-06-25T16:21:00.313Z,8.07
2018-06-25T16:23:30.735Z,11.23
2018-06-25T16:26:00.571Z,10.13
2018-06-25T16:28:30.814Z,13.43
2018-06-25T16:31:00.589Z,10.03
2018-06-25T16:33:30.512Z,12.10
2018-06-25T16:36:00.546Z,10.97
2018-06-25T16:38:30.686Z,10.97
2018-06-25T16:41:00.674Z,11.57
2018-06-25T16:43:30.696Z,8.23
2018-06-25T16:46:01.377Z,9.47
2018-06-25T16:48:31.561Z,9.13
2018-06-25T16:51:01.424Z,11.30
2018-06-25T16:53:31.524Z,11.03
2018-06-25T16:56:01.754Z,9.37
2018-06-25T16:58:32.536Z,11.93
2018-06-25T17:01:02.987Z,14.83
2018-06-25T17:03:34.353Z,13.70
2018-06-25T17:06:04.993Z,11.23
2018-06-25T17:08:35.285Z,12.00
2018-06-25T17:11:05.593Z,9.00
2018-06-25T17:13:35.799Z,11.03
2018-06-25T17:16:06.019Z,7.30
2018-06-25T17:18:36.512Z,11.53
2018-06-25T17:21:06.755Z,14.63
2018-06-25T17:23:37.211Z,13.23
2018-06-25T17:26:07.791Z,11.20
2018-06-25T17:28:37.997Z,13.97
2018-06-25T17:31:08.723Z,11.57
2018-06-25T17:33:39.366Z,8.83
2018-06-25T17:36:09.895Z,11.17
2018-06-25T17:38:44.615Z,9.70
2018-06-25T17:41:15.928Z,11.83
2018-06-25T17:43:48.091Z,11.80
2018-06-25T17:46:19.480Z,11.10
2018-06-25T17:48:51.112Z,14.47
2018-06-25T17:51:23.593Z,12.93
2018-06-25T17:53:55.355Z,9.57
2018-06-25T17:56:27.092Z,15.63
2018-06-25T17:58:58.169Z,8.17
2018-06-25T18:01:32.386Z,9.77
2018-06-25T18:04:03.343Z,9.83
2018-06-25T18:06:35.001Z,10.63
2018-06-25T18:09:08.109Z,14.37
2018-06-25T18:11:38.917Z,17.70
2018-06-25T18:14:10.389Z,12.47
2018-06-25T18:16:42.278Z,10.97
2018-06-25T18:19:13.595Z,8.33
2018-06-25T18:21:45.293Z,10.60
2018-06-25T18:24:16.747Z,12.10
2018-06-25T18:26:47.252Z,10.67
2018-06-25T18:29:18.305Z,11.03
2018-06-25T18:31:49.309Z,10.47
2018-06-25T18:34:21.063Z,13.20
2018-06-25T18:36:53.117Z,12.07
2018-06-25T18:39:25.515Z,15.90
2018-06-25T18:41:56.921Z,11.43
2018-06-25T18:44:28.276Z,13.30
2018-06-25T18:46:59.364Z,12.40
2018-06-25T18:49:30.523Z,10.77
2018-06-25T18:52:02.383Z,15.63
2018-06-25T18:54:34.061Z,18.43
2018-06-25T18:57:05.713Z,18.13
2018-06-25T18:59:37.624Z,19.43
2018-06-25T19:02:09.064Z,16.40
2018-06-25T19:04:40.403Z,11.70
2018-06-25T19:07:10.878Z,12.20
2018-06-25T19:09:41.240Z,16.07
2018-06-25T19:12:11.373Z,15.07
2018-06-25T19:14:41.590Z,11.17
2018-06-25T19:17:11.414Z,10.67
2018-06-25T19:19:41.401Z,12.60
2018-06-25T19:22:11.420Z,11.93
2018-06-25T19:24:41.463Z,14.70
2018-06-25T19:27:11.545Z,11.50
2018-06-25T19:29:41.775Z,16.17
2018-06-25T19:32:11.573Z,15.43
2018-06-25T19:34:41.227Z,13.63
2018-06-25T19:37:11.052Z,12.27
2018-06-25T19:39:40.418Z,14.40
2018-06-25T19:42:09.939Z,16.27
2018-06-25T19:44:39.289Z,12.20
2018-06-25T19:47:08.478Z,16.37
2018-06-25T19:49:37.638Z,10.70
2018-06-25T19:52:06.863Z,11.00
2018-06-25T19:54:36.003Z,11.47
2018-06-25T19:57:05.601Z,16.20
2018-06-25T19:59:35.230Z,11.03
2018-06-25T20:02:04.549Z,12.60
2018-06-25T20:04:34.261Z,13.27
2018-06-25T20:07:03.453Z,9.17
2018-06-25T20:09:32.611Z,13.30
2018-06-25T20:12:01.715Z,10.97
2018-06-25T20:14:30.812Z,13.53
2018-06-25T20:16:59.883Z,10.67
2018-06-25T20:19:29.296Z,11.90
2018-06-25T20:21:58.467Z,13.73
2018-06-25T20:24:27.841Z,10.87
2018-06-25T20:26:56.962Z,11.93
2018-06-25T20:29:26.304Z,12.27
2018-06-25T20:31:55.680Z,15.23
2018-06-25T20:34:25.487Z,15.20
2018-06-25T20:36:54.938Z,14.70
2018-06-25T20:39:24.323Z,14.93
2018-06-25T20:41:54.638Z,15.37
2018-06-25T20:44:23.938Z,15.87
2018-06-25T20:46:53.215Z,12.20
2018-06-25T20:49:22.718Z,14.07
2018-06-25T20:51:52.124Z,18.93
2018-06-25T20:54:22.630Z,18.20
2018-06-25T20:56:52.796Z,14.93
2018-06-25T20:59:21.920Z,13.17
2018-06-25T21:01:51.096Z,16.97
2018-06-25T21:04:20.343Z,16.37
2018-06-25T21:06:49.495Z,14.93
2018-06-25T21:09:18.849Z,15.70
2018-06-25T21:11:48.114Z,14.83
2018-06-25T21:14:17.644Z,15.50
2018-06-25T21:16:47.070Z,14.30
2018-06-25T21:19:16.584Z,13.30
2018-06-25T21:21:45.746Z,16.13
2018-06-25T21:24:15.056Z,17.47
2018-06-25T21:26:45.856Z,20.77
2018-06-25T21:29:15.350Z,17.83
2018-06-25T21:31:44.828Z,16.10
2018-06-25T21:34:14.310Z,17.80
2018-06-25T21:36:43.567Z,15.40
2018-06-25T21:39:12.868Z,16.90
2018-06-25T21:41:42.719Z,18.70
2018-06-25T21:44:12.583Z,18.70
2018-06-25T21:46:42.644Z,22.27
2018-06-25T21:49:11.877Z,23.23
2018-06-25T21:51:41.120Z,17.73
2018-06-25T21:54:10.471Z,16.80
2018-06-25T21:56:39.766Z,18.13
2018-06-25T21:59:08.979Z,20.60
2018-06-25T22:01:38.484Z,16.73
2018-06-25T22:04:07.713Z,17.63
2018-06-25T22:06:37.188Z,25.20
2018-06-25T22:09:09.174Z,20.10
2018-06-25T22:11:38.407Z,16.63
2018-06-25T22:14:08.022Z,17.80
2018-06-25T22:16:37.164Z,20.63
2018-06-25T22:19:06.892Z,23.10
2018-06-25T22:21:36.110Z,19.10
2018-06-25T22:24:05.876Z,22.17
2018-06-25T22:26:35.231Z,21.40
2018-06-25T22:29:04.987Z,23.63
2018-06-25T22:31:34.279Z,22.60
2018-06-25T22:34:03.677Z,21.90
2018-06-25T22:36:32.966Z,20.93
2018-06-25T22:39:02.130Z,25.60
2018-06-25T22:41:31.877Z,18.07
2018-06-25T22:44:13.911Z,18.23
2018-06-25T22:46:44.413Z,23.17
2018-06-25T22:49:13.878Z,28.83
2018-06-25T22:51:43.799Z,22.40
2018-06-25T22:54:13.162Z,22.73
2018-06-25T22:56:42.418Z,17.43
2018-06-25T22:59:11.609Z,21.13
2018-06-25T23:01:41.069Z,27.43
2018-06-25T23:04:10.264Z,26.23
2018-06-25T23:06:39.636Z,23.67
2018-06-25T23:09:10.496Z,20.17
2018-06-25T23:11:39.736Z,21.20
2018-06-25T23:14:09.013Z,25.37
2018-06-25T23:16:38.248Z,18.67
2018-06-25T23:19:07.468Z,22.13
2018-06-25T23:21:36.868Z,18.47
2018-06-25T23:24:06.136Z,16.30
2018-06-25T23:26:35.382Z,24.30
2018-06-25T23:29:04.668Z,18.03
2018-06-25T23:31:33.966Z,16.37
2018-06-25T23:34:03.293Z,17.67
2018-06-25T23:36:32.566Z,19.60
2018-06-25T23:39:01.804Z,15.43
2018-06-25T23:41:30.993Z,16.13
2018-06-25T23:44:00.378Z,15.23
2018-06-25T23:46:29.526Z,17.57
2018-06-25T23:48:58.940Z,18.67
2018-06-25T23:51:28.460Z,14.30
2018-06-25T23:53:57.818Z,17.90
2018-06-25T23:56:26.994Z,15.77
2018-06-25T23:58:56.804Z,15.13
